createdAt,value
2024-04-22T00:00:10.183Z,1.85
2024-04-22T00:02:36.895Z,1.58
2024-04-22T00:05:03.796Z,1.65
2024-04-22T00:07:30.416Z,1.57
2024-04-22T00:09:56.989Z,1.64
2024-04-22T00:12:23.637Z,1.28
2024-04-22T00:14:52.763Z,1.87
2024-04-22T00:17:19.393Z,1.64
2024-04-22T00:19:46.041Z,1.72
2024-04-22T00:22:13.690Z,1.42
2024-04-22T00:24:40.404Z,1.46
2024-04-22T00:27:07.260Z,1.44
2024-04-22T00:29:33.874Z,1.26
2024-04-22T00:32:00.536Z,1.05
2024-04-22T00:34:27.188Z,1.46
2024-04-22T00:36:53.806Z,1.15
2024-04-22T00:39:20.418Z,1.63
2024-04-22T00:41:47.042Z,1.06
2024-04-22T00:44:13.936Z,1.48
2024-04-22T00:46:40.804Z,1.34
2024-04-22T00:49:07.972Z,1.30
2024-04-22T00:51:34.960Z,1.50
2024-04-22T00:54:02.455Z,1.36
2024-04-22T00:56:30.286Z,1.48
2024-04-22T00:58:59.722Z,1.36
2024-04-22T01:01:28.931Z,1.55
2024-04-22T01:03:55.744Z,1.43
2024-04-22T01:06:22.402Z,1.48
2024-04-22T01:08:48.988Z,1.74
2024-04-22T01:11:15.644Z,1.55
2024-04-22T01:13:42.407Z,1.54
2024-04-22T01:16:09.086Z,1.56
2024-04-22T01:18:35.617Z,1.61
2024-04-22T01:21:02.374Z,1.21
2024-04-22T01:23:29.287Z,1.34
2024-04-22T01:25:57.617Z,1.23
2024-04-22T01:28:24.607Z,1.00
2024-04-22T01:30:51.378Z,1.29
2024-04-22T01:33:18.080Z,1.24
2024-04-22T01:35:44.834Z,1.30
2024-04-22T01:38:11.523Z,1.24
2024-04-22T01:40:38.294Z,1.19
2024-04-22T01:43:05.122Z,1.27
2024-04-22T01:45:31.788Z,1.42
2024-04-22T01:47:58.772Z,1.70
2024-04-22T01:50:25.533Z,1.28
2024-04-22T01:52:52.206Z,1.10
2024-04-22T01:55:18.839Z,1.44
2024-04-22T01:57:45.484Z,1.08
2024-04-22T02:00:12.245Z,1.16
2024-04-22T02:02:38.930Z,0.92
2024-04-22T02:05:06.694Z,1.11
2024-04-22T02:07:33.439Z,0.89
2024-04-22T02:10:08.915Z,1.08
2024-04-22T02:12:44.003Z,1.18
2024-04-22T02:15:10.502Z,1.10
2024-04-22T02:17:37.295Z,0.80
2024-04-22T02:20:04.545Z,0.98
2024-04-22T02:22:31.188Z,1.08
2024-04-22T02:24:57.759Z,1.17
2024-04-22T02:27:24.366Z,0.93
2024-04-22T02:29:50.954Z,1.15
2024-04-22T02:46:49.043Z,-0.09
2024-04-22T02:49:15.775Z,0.30
2024-04-22T02:51:42.399Z,0.23
2024-04-22T02:54:08.931Z,0.52
2024-04-22T02:56:35.590Z,0.43
2024-04-22T02:59:02.298Z,0.39
2024-04-22T03:01:30.297Z,0.55
2024-04-22T03:03:57.068Z,0.52
2024-04-22T03:06:23.737Z,0.65
2024-04-22T03:08:51.087Z,0.70
2024-04-22T03:11:17.755Z,0.44
2024-04-22T03:13:44.933Z,0.48
2024-04-22T03:16:12.700Z,0.62
2024-04-22T03:18:39.417Z,0.51
2024-04-22T03:21:06.125Z,0.56
2024-04-22T03:23:32.777Z,0.62
2024-04-22T03:25:59.403Z,0.57
2024-04-22T03:28:25.963Z,0.77
2024-04-22T03:30:52.714Z,0.45
2024-04-22T03:33:21.586Z,0.41
2024-04-22T03:35:48.218Z,0.20
2024-04-22T03:38:16.378Z,0.78
2024-04-22T03:40:43.083Z,0.39
2024-04-22T03:43:11.965Z,0.27
2024-04-22T03:45:38.740Z,0.55
2024-04-22T03:48:24.039Z,0.65
2024-04-22T03:50:50.752Z,0.42
2024-04-22T03:53:18.247Z,0.82
2024-04-22T03:55:44.975Z,0.55
2024-04-22T03:58:11.670Z,0.57
2024-04-22T04:00:39.294Z,0.77
2024-04-22T04:03:06.016Z,0.83
2024-04-22T04:05:32.809Z,0.93
2024-04-22T04:07:59.591Z,0.91
2024-04-22T04:15:01.506Z,0.69
2024-04-22T04:17:28.214Z,0.50
2024-04-22T04:19:54.893Z,0.83
2024-04-22T04:22:21.513Z,0.73
2024-04-22T04:24:48.115Z,1.00
2024-04-22T04:27:17.069Z,0.69
2024-04-22T04:29:46.848Z,0.85
2024-04-22T04:32:13.552Z,1.16
2024-04-22T04:34:41.891Z,1.16
2024-04-22T04:37:08.654Z,1.20
2024-04-22T04:39:35.387Z,1.26
2024-04-22T04:42:01.941Z,1.55
2024-04-22T04:44:28.631Z,1.41
2024-04-22T04:46:55.317Z,1.22
2024-04-22T04:49:50.533Z,1.49
2024-04-22T04:52:17.338Z,1.47
2024-04-22T04:54:44.063Z,1.38
2024-04-22T04:57:10.889Z,1.48
2024-04-22T04:59:37.640Z,1.17
2024-04-22T05:25:34.185Z,1.68
2024-04-22T05:28:10.015Z,1.78
2024-04-22T05:31:15.190Z,1.80
2024-04-22T05:35:36.143Z,1.94
2024-04-22T05:37:48.211Z,2.11
2024-04-22T05:41:02.207Z,2.05
2024-04-22T05:53:54.969Z,2.68
2024-04-22T05:59:39.035Z,2.83
2024-04-22T06:02:08.777Z,3.28
2024-04-22T06:04:38.565Z,3.25
2024-04-22T06:07:05.270Z,3.07
2024-04-22T06:09:31.985Z,3.64
2024-04-22T06:12:15.118Z,3.45
2024-04-22T06:14:59.269Z,3.71
2024-04-22T06:22:18.406Z,3.67
2024-04-22T06:24:48.613Z,3.54
2024-04-22T06:27:55.080Z,3.59
2024-04-22T06:38:33.697Z,3.38
2024-04-22T06:41:37.079Z,3.72
2024-04-22T06:44:09.109Z,3.64
2024-04-22T07:00:07.020Z,3.92
2024-04-22T07:02:39.739Z,4.20
2024-04-22T07:05:12.504Z,4.07
2024-04-22T07:07:39.673Z,4.15
2024-04-22T07:14:23.943Z,4.37
2024-04-22T07:17:23.557Z,4.31
2024-04-22T07:19:54.897Z,4.09
2024-04-22T07:22:28.895Z,4.44
2024-04-22T07:25:04.047Z,4.50
2024-04-22T07:27:45.807Z,4.53
2024-04-22T07:30:18.142Z,4.99
2024-04-22T07:33:09.770Z,5.18
2024-04-22T07:39:54.199Z,4.86
2024-04-22T07:47:10.955Z,5.10
2024-04-22T07:49:37.949Z,5.20
2024-04-22T07:52:12.792Z,4.70
2024-04-22T07:54:40.015Z,5.63
2024-04-22T07:57:15.352Z,4.53
2024-04-22T07:59:42.327Z,5.39
2024-04-22T08:02:09.476Z,5.23
2024-04-22T08:04:36.533Z,5.53
2024-04-22T08:07:05.091Z,5.34
2024-04-22T08:09:32.276Z,5.23
2024-04-22T08:11:59.425Z,5.01
2024-04-22T08:14:26.152Z,5.61
2024-04-22T08:16:52.789Z,6.22
2024-04-22T08:19:19.589Z,5.82
2024-04-22T08:21:53.659Z,5.40
2024-04-22T08:24:22.417Z,5.24
2024-04-22T08:26:49.470Z,5.37
2024-04-22T08:29:19.320Z,5.13
2024-04-22T08:31:46.036Z,5.22
2024-04-22T08:34:12.746Z,5.35
2024-04-22T08:36:42.214Z,4.54
2024-04-22T08:39:11.132Z,4.84
2024-04-22T08:41:38.439Z,5.14
2024-04-22T08:44:05.387Z,4.98
2024-04-22T08:46:33.696Z,5.45
2024-04-22T08:49:00.852Z,5.38
2024-04-22T08:51:28.544Z,5.32
2024-04-22T08:53:55.552Z,5.07
2024-04-22T08:56:25.641Z,5.16
2024-04-22T08:58:52.835Z,5.50
2024-04-22T09:01:19.833Z,5.27
2024-04-22T09:03:46.666Z,4.74
2024-04-22T09:06:13.727Z,5.03
2024-04-22T09:08:48.878Z,5.16
2024-04-22T09:11:45.973Z,4.97
2024-04-22T09:14:05.071Z,5.36
2024-04-22T09:16:36.503Z,5.56
2024-04-22T09:19:04.164Z,5.73
2024-04-22T09:21:36.870Z,6.20
2024-04-22T09:24:04.125Z,6.52
2024-04-22T09:26:30.912Z,6.61
2024-04-22T09:28:59.870Z,5.91
2024-04-22T09:31:27.867Z,5.50
2024-04-22T09:34:05.955Z,6.23
2024-04-22T09:36:35.855Z,5.71
2024-04-22T09:39:02.713Z,5.55
2024-04-22T09:41:31.043Z,5.97
2024-04-22T09:44:03.088Z,5.95
2024-04-22T09:46:36.736Z,5.45
2024-04-22T09:49:05.622Z,4.92
2024-04-22T09:51:35.660Z,4.61
2024-04-22T09:54:02.498Z,4.81
2024-04-22T09:56:34.459Z,4.59
2024-04-22T09:59:07.210Z,4.61
2024-04-22T10:01:34.434Z,4.33
2024-04-22T10:04:02.301Z,4.46
2024-04-22T10:06:33.751Z,4.30
2024-04-22T10:09:01.232Z,4.07
2024-04-22T10:11:32.543Z,4.09
2024-04-22T10:14:10.242Z,3.76
2024-04-22T10:16:40.318Z,4.07
2024-04-22T10:19:09.201Z,3.60
2024-04-22T10:21:42.237Z,4.07
2024-04-22T10:24:09.009Z,4.07
2024-04-22T10:26:47.673Z,4.30
2024-04-22T10:29:19.004Z,4.34
2024-04-22T10:31:45.603Z,4.50
2024-04-22T10:34:12.427Z,4.80
2024-04-22T10:36:39.116Z,4.94
2024-04-22T10:39:05.754Z,4.93
2024-04-22T10:41:32.855Z,4.36
2024-04-22T10:43:59.599Z,4.38
2024-04-22T10:46:26.298Z,4.21
2024-04-22T10:48:53.196Z,4.17
2024-04-22T10:51:20.081Z,4.32
2024-04-22T10:53:55.844Z,4.06
2024-04-22T10:56:23.478Z,4.38
2024-04-22T10:58:52.043Z,4.58
2024-04-22T11:01:20.168Z,4.73
2024-04-22T11:03:47.288Z,5.09
2024-04-22T11:06:14.653Z,5.07
2024-04-22T11:08:42.723Z,5.26
2024-04-22T11:11:10.732Z,5.27
2024-04-22T11:13:38.896Z,5.17
2024-04-22T11:16:09.514Z,4.89
2024-04-22T11:18:37.144Z,5.46
2024-04-22T11:21:04.407Z,5.19
2024-04-22T11:23:31.950Z,5.81
2024-04-22T11:25:58.819Z,6.01
2024-04-22T11:28:25.774Z,6.47
2024-04-22T11:30:52.367Z,6.47
2024-04-22T11:33:19.969Z,6.32
2024-04-22T11:35:50.879Z,6.52
2024-04-22T11:38:22.035Z,6.11
2024-04-22T11:40:49.188Z,6.41
2024-04-22T11:43:20.990Z,6.31
2024-04-22T11:45:47.681Z,6.19
2024-04-22T11:48:14.269Z,6.62
2024-04-22T11:50:41.086Z,6.02
2024-04-22T11:53:15.055Z,5.45
2024-04-22T11:55:47.911Z,6.06
2024-04-22T11:58:15.033Z,6.22
2024-04-22T12:00:54.064Z,5.65
2024-04-22T12:03:20.812Z,5.96
2024-04-22T12:05:47.484Z,5.96
2024-04-22T12:08:14.224Z,5.74
2024-04-22T12:10:40.843Z,6.01
2024-04-22T12:13:07.658Z,6.04
2024-04-22T12:15:34.296Z,6.56
2024-04-22T12:21:11.069Z,7.06
2024-04-22T12:23:37.819Z,7.10
2024-04-22T12:26:04.453Z,7.09
2024-04-22T12:28:31.177Z,6.60
2024-04-22T12:30:57.866Z,6.84
2024-04-22T12:33:24.606Z,6.89
2024-04-22T12:35:51.409Z,7.20
2024-04-22T12:38:18.134Z,7.12
2024-04-22T12:40:45.072Z,7.22
2024-04-22T12:43:11.762Z,7.04
2024-04-22T12:45:42.788Z,6.12
2024-04-22T12:48:51.411Z,5.77
2024-04-22T12:51:18.079Z,5.65
2024-04-22T12:53:44.590Z,5.66
2024-04-22T12:56:11.584Z,5.00
2024-04-22T12:58:38.810Z,5.40
2024-04-22T13:01:06.393Z,5.71
2024-04-22T13:03:33.896Z,5.90
2024-04-22T13:06:01.125Z,6.38
2024-04-22T13:08:27.886Z,6.41
2024-04-22T13:10:54.770Z,6.60
2024-04-22T13:13:21.605Z,6.75
2024-04-22T13:15:48.341Z,6.71
2024-04-22T13:18:15.295Z,6.81
2024-04-22T13:21:13.123Z,6.72
2024-04-22T13:23:41.362Z,6.23
2024-04-22T13:26:08.411Z,6.86
2024-04-22T13:28:35.192Z,7.19
2024-04-22T13:31:02.266Z,6.99
2024-04-22T13:33:28.944Z,6.38
2024-04-22T13:35:55.643Z,6.91
2024-04-22T13:38:22.428Z,6.86
2024-04-22T13:40:49.127Z,7.44
2024-04-22T13:43:15.817Z,7.24
2024-04-22T13:45:42.425Z,7.43
2024-04-22T13:48:09.132Z,7.34
2024-04-22T13:50:35.834Z,7.78
2024-04-22T13:53:15.298Z,7.16
2024-04-22T13:55:49.153Z,7.55
2024-04-22T13:58:15.908Z,7.81
2024-04-22T14:00:42.899Z,7.37
2024-04-22T14:03:09.708Z,7.53
2024-04-22T14:05:37.565Z,7.57
2024-04-22T14:08:04.493Z,7.47
2024-04-22T14:10:31.139Z,7.59
2024-04-22T14:12:58.036Z,7.67
2024-04-22T14:15:44.395Z,7.70
2024-04-22T14:18:37.464Z,7.52
2024-04-22T14:21:04.383Z,7.21
2024-04-22T14:23:40.197Z,7.58
2024-04-22T14:26:06.939Z,7.42
2024-04-22T14:28:33.550Z,7.36
2024-04-22T14:31:00.367Z,7.76
2024-04-22T14:33:27.232Z,7.21
2024-04-22T14:35:54.110Z,7.12
2024-04-22T14:38:23.622Z,7.43
2024-04-22T14:40:50.482Z,7.29
2024-04-22T14:43:17.346Z,6.79
2024-04-22T14:45:43.958Z,6.54
2024-04-22T14:48:13.233Z,6.59
2024-04-22T14:50:40.044Z,5.79
2024-04-22T14:53:12.010Z,5.12
2024-04-22T14:55:39.564Z,4.74
2024-04-22T14:58:06.286Z,4.31
2024-04-22T15:00:33.383Z,4.32
2024-04-22T15:03:01.806Z,4.20
2024-04-22T15:05:31.740Z,4.26
2024-04-22T15:07:59.249Z,4.26
2024-04-22T15:10:26.075Z,4.69
2024-04-22T15:12:52.761Z,5.00
2024-04-22T15:15:19.569Z,5.25
2024-04-22T15:17:46.309Z,5.32
2024-04-22T15:20:12.987Z,5.88
2024-04-22T15:23:00.024Z,5.53
2024-04-22T15:25:26.832Z,5.93
2024-04-22T15:27:53.723Z,6.07
2024-04-22T15:34:10.100Z,5.73
2024-04-22T15:36:36.739Z,5.86
2024-04-22T15:39:04.002Z,6.13
2024-04-22T15:41:31.059Z,6.49
2024-04-22T15:43:57.831Z,6.69
2024-04-22T15:46:24.517Z,6.50
2024-04-22T15:48:53.498Z,6.57
2024-04-22T15:51:20.226Z,6.21
2024-04-22T15:53:46.818Z,6.29
2024-04-22T15:56:15.647Z,6.13
2024-04-22T15:58:43.153Z,6.48
2024-04-22T16:01:10.090Z,6.92
2024-04-22T16:03:36.963Z,7.29
2024-04-22T16:06:03.768Z,7.45
2024-04-22T16:08:32.340Z,7.21
2024-04-22T16:10:59.287Z,6.86
2024-04-22T16:13:26.042Z,7.17
2024-04-22T16:15:52.950Z,7.02
2024-04-22T16:18:20.024Z,7.21
2024-04-22T16:20:56.506Z,7.34
2024-04-22T16:23:31.862Z,7.21
2024-04-22T16:26:00.448Z,7.20
2024-04-22T16:28:27.383Z,7.27
2024-04-22T16:30:54.305Z,7.41
2024-04-22T16:33:21.057Z,7.17
2024-04-22T16:35:47.736Z,7.28
2024-04-22T16:38:14.470Z,6.78
2024-04-22T16:40:41.228Z,6.97
2024-04-22T16:43:09.036Z,6.37
2024-04-22T16:45:38.480Z,6.58
2024-04-22T16:48:05.656Z,6.34
2024-04-22T16:50:33.998Z,6.23
2024-04-22T16:53:00.909Z,6.48
2024-04-22T16:55:27.696Z,6.29
2024-04-22T16:57:54.698Z,6.29
2024-04-22T17:00:21.547Z,6.11
2024-04-22T17:02:48.470Z,6.43
2024-04-22T17:05:41.951Z,6.46
2024-04-22T17:08:08.650Z,5.97
2024-04-22T17:10:35.230Z,6.11
2024-04-22T17:13:01.924Z,5.42
2024-04-22T17:15:28.503Z,5.73
2024-04-22T17:17:55.275Z,5.37
2024-04-22T17:20:22.165Z,5.64
2024-04-22T17:22:48.963Z,5.97
2024-04-22T17:25:15.810Z,5.15
2024-04-22T17:27:42.986Z,4.37
2024-04-22T17:30:10.052Z,4.67
2024-04-22T17:32:36.836Z,4.96
2024-04-22T17:35:04.674Z,4.75
2024-04-22T17:37:31.857Z,4.71
2024-04-22T17:40:07.387Z,4.86
2024-04-22T17:42:34.104Z,5.15
2024-04-22T17:45:01.461Z,5.34
2024-04-22T17:47:28.221Z,5.05
2024-04-22T17:59:09.383Z,5.53
2024-04-22T18:01:45.636Z,5.43
2024-04-22T18:04:42.453Z,5.55
2024-04-22T18:17:03.744Z,4.92
2024-04-22T18:19:32.630Z,5.09
2024-04-22T18:32:44.308Z,4.58
2024-04-22T18:40:34.319Z,4.73
2024-04-22T18:50:34.015Z,4.34
2024-04-22T18:53:03.784Z,4.38
2024-04-22T18:55:32.532Z,4.30
2024-04-22T18:57:59.458Z,4.22
2024-04-22T19:00:26.552Z,4.28
2024-04-22T19:02:53.560Z,4.25
2024-04-22T19:06:08.645Z,4.24
2024-04-22T19:08:35.516Z,4.00
2024-04-22T19:12:03.054Z,4.07
2024-04-22T19:19:28.950Z,3.82
2024-04-22T19:24:06.741Z,3.50
2024-04-22T19:26:10.353Z,3.80
2024-04-22T19:28:39.973Z,3.52
2024-04-22T19:31:14.377Z,3.73
2024-04-22T19:48:36.709Z,3.27
2024-04-22T19:58:34.197Z,3.20
2024-04-22T20:01:20.415Z,3.50
2024-04-22T20:03:47.910Z,3.61
2024-04-22T20:06:14.934Z,3.33
2024-04-22T20:08:42.146Z,3.60
2024-04-22T20:11:09.410Z,3.48
2024-04-22T20:28:29.718Z,3.55
2024-04-22T21:02:06.240Z,3.10
2024-04-22T21:04:39.908Z,3.22
2024-04-22T21:07:13.191Z,3.30
2024-04-22T21:09:48.580Z,3.45
2024-04-22T21:15:03.974Z,3.57
2024-04-22T21:17:39.576Z,3.55
2024-04-22T21:20:07.284Z,3.44
2024-04-22T21:22:44.785Z,3.73
2024-04-22T21:25:11.539Z,3.62
2024-04-22T21:27:38.175Z,3.76
2024-04-22T21:30:15.953Z,3.92
2024-04-22T21:32:50.081Z,3.70
2024-04-22T21:35:16.972Z,3.61
2024-04-22T21:37:44.110Z,3.69
2024-04-22T21:40:15.165Z,3.67
2024-04-22T21:42:41.892Z,3.76
2024-04-22T21:45:08.642Z,3.84
2024-04-22T21:47:35.342Z,3.70
2024-04-22T21:50:03.627Z,3.77
2024-04-22T21:52:30.444Z,3.66
2024-04-22T21:54:57.429Z,3.64
2024-04-22T22:01:39.480Z,3.88
2024-04-22T22:04:43.881Z,3.83
2024-04-22T22:07:17.141Z,3.83
2024-04-22T22:09:48.942Z,3.46
2024-04-22T22:12:18.989Z,3.63
2024-04-22T22:14:47.276Z,3.70
2024-04-22T22:17:15.853Z,3.81
2024-04-22T22:19:43.657Z,3.82
2024-04-22T22:22:10.594Z,3.70
2024-04-22T22:24:42.086Z,3.83
2024-04-22T22:27:10.647Z,3.87
2024-04-22T22:29:37.948Z,3.90
2024-04-22T22:32:04.919Z,3.82
2024-04-22T22:34:32.479Z,3.55
2024-04-22T22:37:04.587Z,3.58
2024-04-22T22:39:32.156Z,3.80
2024-04-22T22:41:59.609Z,3.85
2024-04-22T22:44:27.083Z,3.97
2024-04-22T22:47:04.598Z,3.91
2024-04-22T22:49:31.654Z,3.96
2024-04-22T22:51:58.340Z,4.01
2024-04-22T22:54:25.049Z,3.60
2024-04-22T22:56:58.904Z,3.91
2024-04-22T22:59:25.950Z,3.46
2024-04-22T23:01:53.436Z,3.73
2024-04-22T23:04:20.257Z,3.76
2024-04-22T23:06:46.968Z,3.91
2024-04-22T23:09:14.155Z,3.97
2024-04-22T23:11:41.086Z,3.70
2024-04-22T23:14:07.818Z,3.72
2024-04-22T23:16:34.396Z,3.96
2024-04-22T23:19:01.102Z,3.60
2024-04-22T23:21:27.724Z,3.82
2024-04-22T23:23:54.439Z,3.58
2024-04-22T23:26:21.061Z,3.81
2024-04-22T23:28:52.639Z,3.30
2024-04-22T23:31:19.467Z,3.30
2024-04-22T23:34:01.415Z,3.46
2024-04-22T23:36:28.270Z,3.37
2024-04-22T23:39:52.942Z,3.69
2024-04-22T23:42:19.637Z,3.06
2024-04-22T23:44:46.202Z,3.44
2024-04-22T23:47:12.874Z,3.07
2024-04-22T23:49:39.518Z,3.24
2024-04-22T23:52:06.247Z,2.91
2024-04-22T23:54:32.787Z,3.18
2024-04-22T23:57:00.859Z,3.03
2024-04-22T23:59:28.096Z,3.00
